createdAt,value
2019-03-30T00:00:44.179Z,2.90
2019-03-30T00:03:12.843Z,2.90
2019-03-30T00:05:41.423Z,2.90
2019-03-30T00:08:10.020Z,2.90
2019-03-30T00:10:38.591Z,2.80
2019-03-30T00:13:07.337Z,2.80
2019-03-30T00:15:36.018Z,2.70
2019-03-30T00:18:04.686Z,2.70
2019-03-30T00:20:33.287Z,2.70
2019-03-30T00:23:02.008Z,2.70
2019-03-30T00:25:30.660Z,2.70
2019-03-30T00:27:59.552Z,2.60
2019-03-30T00:30:28.285Z,2.60
2019-03-30T00:32:56.859Z,2.60
2019-03-30T00:35:25.474Z,2.50
2019-03-30T00:37:54.184Z,2.40
2019-03-30T00:40:22.923Z,2.50
2019-03-30T00:42:51.507Z,2.40
2019-03-30T00:45:20.184Z,2.40
2019-03-30T00:47:49.050Z,2.30
2019-03-30T00:50:17.655Z,2.30
2019-03-30T00:52:46.248Z,2.30
2019-03-30T00:55:14.911Z,2.40
2019-03-30T00:57:43.504Z,2.30
2019-03-30T01:00:12.707Z,2.30
2019-03-30T01:02:41.458Z,2.30
2019-03-30T01:05:10.197Z,2.30
2019-03-30T01:07:38.783Z,2.20
2019-03-30T01:10:08.406Z,2.20
2019-03-30T01:12:37.067Z,2.10
2019-03-30T01:15:07.680Z,2.10
2019-03-30T01:17:36.359Z,2.00
2019-03-30T01:20:06.962Z,2.00
2019-03-30T01:22:35.574Z,1.90
2019-03-30T01:25:08.385Z,1.90
2019-03-30T01:27:37.114Z,1.90
2019-03-30T01:30:06.796Z,1.90
2019-03-30T01:32:35.442Z,1.90
2019-03-30T01:35:06.096Z,1.90
2019-03-30T01:37:34.902Z,1.90
2019-03-30T01:40:05.088Z,1.80
2019-03-30T01:42:33.756Z,1.70
2019-03-30T01:45:02.350Z,1.80
2019-03-30T01:47:30.924Z,1.80
2019-03-30T01:49:59.624Z,1.70
2019-03-30T01:52:28.360Z,1.70
2019-03-30T01:54:56.963Z,1.70
2019-03-30T01:57:25.577Z,1.60
2019-03-30T01:59:54.414Z,1.60
2019-03-30T02:02:22.986Z,1.50
2019-03-30T02:04:51.615Z,1.50
2019-03-30T02:07:20.182Z,1.40
2019-03-30T02:09:48.830Z,1.30
2019-03-30T02:12:17.494Z,1.30
2019-03-30T02:14:46.086Z,1.30
2019-03-30T02:17:14.739Z,1.30
2019-03-30T02:19:43.626Z,1.30
2019-03-30T02:22:12.711Z,1.30
2019-03-30T02:24:41.320Z,1.30
2019-03-30T02:27:10.003Z,1.40
2019-03-30T02:29:38.621Z,1.40
2019-03-30T02:32:07.496Z,1.30
2019-03-30T02:34:36.083Z,1.30
2019-03-30T02:37:04.685Z,1.30
2019-03-30T02:39:33.281Z,1.30
2019-03-30T02:42:02.127Z,1.20
2019-03-30T02:44:50.089Z,1.20
2019-03-30T02:47:18.846Z,1.20
2019-03-30T02:49:47.485Z,1.10
2019-03-30T02:52:16.092Z,1.10
2019-03-30T02:54:44.731Z,1.00
2019-03-30T02:57:13.409Z,1.00
2019-03-30T02:59:41.973Z,1.00
2019-03-30T03:02:10.651Z,1.00
2019-03-30T03:04:39.287Z,0.90
2019-03-30T03:07:07.900Z,0.90
2019-03-30T03:09:36.467Z,0.90
2019-03-30T03:12:05.075Z,0.90
2019-03-30T03:14:33.676Z,0.80
2019-03-30T03:17:02.271Z,0.80
2019-03-30T03:19:30.912Z,0.80
2019-03-30T03:21:59.520Z,0.80
2019-03-30T03:24:28.096Z,0.70
2019-03-30T03:26:56.690Z,0.70
2019-03-30T03:29:25.290Z,0.70
2019-03-30T03:31:53.900Z,0.70
2019-03-30T03:34:22.544Z,0.80
2019-03-30T03:36:51.165Z,0.80
2019-03-30T03:39:19.784Z,0.80
2019-03-30T03:41:48.403Z,0.90
2019-03-30T03:44:17.029Z,0.90
2019-03-30T03:46:45.644Z,0.80
2019-03-30T03:49:14.233Z,0.80
2019-03-30T03:51:43.098Z,0.80
2019-03-30T03:54:11.784Z,0.80
2019-03-30T03:56:40.462Z,0.80
2019-03-30T03:59:10.652Z,0.70
2019-03-30T04:01:41.483Z,0.70
2019-03-30T04:04:12.658Z,0.70
2019-03-30T04:06:43.668Z,0.60
2019-03-30T04:09:16.703Z,0.60
2019-03-30T04:11:47.431Z,0.60
2019-03-30T04:14:19.302Z,0.60
2019-03-30T04:16:48.037Z,0.50
2019-03-30T04:19:16.681Z,0.50
2019-03-30T04:21:45.280Z,0.40
2019-03-30T04:24:13.941Z,0.40
2019-03-30T04:26:42.491Z,0.40
2019-03-30T04:29:11.128Z,0.40
2019-03-30T04:31:39.779Z,0.40
2019-03-30T04:34:08.458Z,0.40
2019-03-30T04:36:37.032Z,0.40
2019-03-30T04:39:06.203Z,0.40
2019-03-30T04:41:34.781Z,0.30
2019-03-30T04:44:03.454Z,0.30
2019-03-30T04:46:32.047Z,0.30
2019-03-30T04:49:00.662Z,0.20
2019-03-30T04:51:29.315Z,0.20
2019-03-30T04:53:57.923Z,0.20
2019-03-30T04:56:26.570Z,0.10
2019-03-30T04:58:55.167Z,0.10
2019-03-30T05:01:23.727Z,0.10
2019-03-30T05:03:52.418Z,0.10
2019-03-30T05:06:21.009Z,0.00
2019-03-30T05:08:49.651Z,0.00
2019-03-30T05:11:18.271Z,0.00
2019-03-30T05:13:46.888Z,0.00
2019-03-30T05:16:15.483Z,0.00
2019-03-30T05:18:44.109Z,0.00
2019-03-30T05:21:12.667Z,0.00
2019-03-30T05:23:41.351Z,0.00
2019-03-30T05:26:09.928Z,0.00
2019-03-30T05:28:38.602Z,0.00
2019-03-30T05:31:07.260Z,0.10
2019-03-30T05:33:35.860Z,0.10
2019-03-30T05:36:04.571Z,0.20
2019-03-30T05:38:33.208Z,0.30
2019-03-30T05:41:01.822Z,0.30
2019-03-30T05:43:33.994Z,0.40
2019-03-30T05:46:02.572Z,0.40
2019-03-30T05:48:31.281Z,0.40
2019-03-30T05:50:59.834Z,0.50
2019-03-30T05:53:28.460Z,0.60
2019-03-30T05:55:57.043Z,0.80
2019-03-30T05:58:25.659Z,1.30
2019-03-30T06:00:54.251Z,1.80
2019-03-30T06:03:22.879Z,2.30
2019-03-30T06:05:51.447Z,2.80
2019-03-30T06:08:20.046Z,3.10
2019-03-30T06:10:49.881Z,3.70
2019-03-30T06:13:18.571Z,4.20
2019-03-30T06:15:47.151Z,4.60
2019-03-30T06:18:15.747Z,5.10
2019-03-30T06:20:44.321Z,5.00
2019-03-30T06:23:12.898Z,5.80
2019-03-30T06:25:41.625Z,6.10
2019-03-30T06:28:10.324Z,6.40
2019-03-30T06:30:38.918Z,6.80
2019-03-30T06:33:07.490Z,6.60
2019-03-30T06:35:36.100Z,7.10
2019-03-30T06:38:04.774Z,7.60
2019-03-30T06:40:33.490Z,8.50
2019-03-30T06:43:03.311Z,8.60
2019-03-30T06:45:31.896Z,9.30
2019-03-30T06:48:00.621Z,9.80
2019-03-30T06:50:29.430Z,10.00
2019-03-30T06:52:58.927Z,10.80
2019-03-30T06:55:27.873Z,10.60
2019-03-30T06:57:56.569Z,11.60
2019-03-30T07:00:35.040Z,11.80
2019-03-30T07:03:05.479Z,11.50
2019-03-30T07:05:37.169Z,11.30
2019-03-30T07:08:07.356Z,11.00
2019-03-30T07:10:38.500Z,12.10
2019-03-30T07:13:07.301Z,12.10
2019-03-30T07:15:38.986Z,12.00
2019-03-30T07:18:07.637Z,12.50
2019-03-30T07:20:36.332Z,12.70
2019-03-30T07:23:11.724Z,12.50
2019-03-30T07:25:35.162Z,11.90
2019-03-30T07:28:03.912Z,12.40
2019-03-30T07:30:32.523Z,12.20
2019-03-30T07:33:01.163Z,12.90
2019-03-30T07:35:29.855Z,13.30
2019-03-30T07:37:58.509Z,13.60
2019-03-30T07:40:27.130Z,13.60
2019-03-30T07:42:55.736Z,13.90
2019-03-30T07:45:24.370Z,13.70
2019-03-30T07:47:53.004Z,14.00
2019-03-30T07:50:21.753Z,14.50
2019-03-30T07:52:50.329Z,15.40
2019-03-30T07:55:18.945Z,15.60
2019-03-30T07:57:47.539Z,15.70
2019-03-30T08:00:16.689Z,15.70
2019-03-30T08:02:45.263Z,16.30
2019-03-30T08:05:14.305Z,16.60
2019-03-30T08:07:42.962Z,17.10
2019-03-30T08:10:11.821Z,17.30
2019-03-30T08:12:40.468Z,17.10
2019-03-30T08:15:09.508Z,17.00
2019-03-30T08:17:38.104Z,17.20
2019-03-30T08:20:10.047Z,17.40
2019-03-30T08:22:39.017Z,17.90
2019-03-30T08:25:08.032Z,17.60
2019-03-30T08:27:36.622Z,17.80
2019-03-30T08:30:06.174Z,18.50
2019-03-30T08:32:34.743Z,18.40
2019-03-30T08:35:03.602Z,18.70
2019-03-30T08:37:32.167Z,18.90
2019-03-30T08:40:00.760Z,18.80
2019-03-30T08:42:29.367Z,19.20
2019-03-30T08:44:58.037Z,19.30
2019-03-30T08:47:26.642Z,19.60
2019-03-30T08:49:55.221Z,18.50
2019-03-30T08:52:23.893Z,18.90
2019-03-30T08:54:52.557Z,18.40
2019-03-30T08:57:21.221Z,18.90
2019-03-30T08:59:49.807Z,18.90
2019-03-30T09:02:18.426Z,19.20
2019-03-30T09:04:47.124Z,18.40
2019-03-30T09:07:15.872Z,18.60
2019-03-30T09:09:44.511Z,19.20
2019-03-30T09:12:13.106Z,18.30
2019-03-30T09:14:41.852Z,18.60
2019-03-30T09:17:10.458Z,18.30
2019-03-30T09:19:39.150Z,19.20
2019-03-30T09:22:07.888Z,19.10
2019-03-30T09:24:36.527Z,19.60
2019-03-30T09:27:05.212Z,19.30
2019-03-30T09:29:33.876Z,20.40
2019-03-30T09:32:13.598Z,20.80
2019-03-30T09:34:32.940Z,20.80
2019-03-30T09:37:01.592Z,20.40
2019-03-30T09:39:30.191Z,20.90
2019-03-30T09:41:58.903Z,21.30
2019-03-30T09:44:27.556Z,20.50
2019-03-30T09:46:56.199Z,20.50
2019-03-30T09:49:24.910Z,21.10
2019-03-30T09:51:53.537Z,20.90
2019-03-30T09:54:23.924Z,20.60
2019-03-30T09:56:52.422Z,21.00
2019-03-30T09:59:20.978Z,21.00
2019-03-30T10:01:49.633Z,20.70
